Sidney, Texas
Current Conditions -  °F | °C
As of 11:35 PM on Thursday 27 Nov 2014 (Local Time) from KMKN Reporting Station
Clear Clear  
Wind Chill: 37°   Ceiling: Unl
Heat Index: 41°   Visibility: 10mi
Dew Point: 32°   Wind: 6mph
Humidity: 71%   Direction: 180°S
Pressure: 30.34"   Gusts: NA
Location:  31.94°N, 98.74°W
Report Text: KMKN 280535Z AUTO 18005KT 10SM CLR 05/00 A3034 RMK AO2 T00490000
Loading
Personal Weather Stations






























Interactive Weather Map New forecast layout! Learn more

10-Day Weather Forecast

Advertisements
Track Severe Weather on mobile